Time;durP1;ratioP1;P1;durP2;ratioP2;P2;SDS_P1;SDS_P2;PMS_P1;PMS_P2;Temp;Humidity;BMP_temperature;BMP_pressure;BME280_temperature;BME280_humidity;BME280_pressure;Samples;Min_cycle;Max_cycle;Signal;HPM_P1;HPM_P2
2022/08/15 00:02:31;;;;;;;0.00;0.00;;;;;;;;;;12277206;19;20050;-61
2022/08/15 00:06:37;;;;;;;0.00;0.00;;;;;;;;;;12281297;19;20130;-60
2022/08/15 00:10:38;;;;;;;0.00;0.00;;;;;;;;;;12278222;19;20005;-61
2022/08/15 00:14:38;;;;;;;0.00;0.00;;;;;;;;;;12276827;19;19986;-61
2022/08/15 00:18:42;;;;;;;0.00;0.00;;;;;;;;;;12281861;19;20007;-60
2022/08/15 00:22:48;;;;;;;0.00;0.00;;;;;;;;;;12276771;19;19998;-60
2022/08/15 00:26:50;;;;;;;0.00;0.00;;;;;;;;;;12276080;19;19998;-60
2022/08/15 00:30:51;;;;;;;0.00;0.00;;;;;;;;;;12275275;19;20011;-59
2022/08/15 00:34:52;;;;;;;0.00;0.00;;;;;;;;;;12281882;19;20026;-61
2022/08/15 00:38:52;;;;;;;0.00;0.00;;;;;;;;;;12276335;19;20010;-60
2022/08/15 00:42:53;;;;;;;0.00;0.00;;;;;;;;;;12279260;19;20022;-59
2022/08/15 00:46:57;;;;;;;0.00;0.00;;;;;;;;;;12274876;19;20011;-59
2022/08/15 00:50:58;;;;;;;0.00;0.00;;;;;;;;;;12277239;19;20031;-58
2022/08/15 00:55:04;;;;;;;0.00;0.00;;;;;;;;;;12275247;19;19983;-59
2022/08/15 00:59:09;;;;;;;0.00;0.00;;;;;;;;;;12280143;19;20007;-58
2022/08/15 01:03:17;;;;;;;0.00;0.00;;;;;;;;;;12278963;19;20011;-60
2022/08/15 01:07:18;;;;;;;0.00;0.00;;;;;;;;;;12275116;19;20003;-59
2022/08/15 01:11:25;;;;;;;0.00;0.00;;;;;;;;;;12273268;19;20015;-59
2022/08/15 01:15:25;;;;;;;0.00;0.00;;;;;;;;;;12277207;19;20020;-59
2022/08/15 01:19:34;;;;;;;0.00;0.00;;;;;;;;;;12273836;19;20222;-59
2022/08/15 01:23:48;;;;;;;0.00;0.00;;;;;;;;;;12276190;19;20021;-59
2022/08/15 01:28:06;;;;;;;0.00;0.00;;;;;;;;;;12275463;19;20021;-60
2022/08/15 01:32:07;;;;;;;0.00;0.00;;;;;;;;;;12271406;19;20017;-58
2022/08/15 01:36:08;;;;;;;0.00;0.00;;;;;;;;;;12272798;19;20031;-59
2022/08/15 01:40:24;;;;;;;0.00;0.00;;;;;;;;;;12276156;19;19999;-60
2022/08/15 01:44:28;;;;;;;0.00;0.00;;;;;;;;;;12273617;19;20010;-59
2022/08/15 01:48:43;;;;;;;0.00;0.00;;;;;;;;;;12278232;19;19999;-59
2022/08/15 01:53:15;;;;;;;0.00;0.00;;;;;;;;;;12277492;19;20007;-60
2022/08/15 01:57:16;;;;;;;0.00;0.00;;;;;;;;;;12272159;19;19995;-59
2022/08/15 02:01:20;;;;;;;0.00;0.00;;;;;;;;;;12273435;19;20630;-59
2022/08/15 02:05:20;;;;;;;0.00;0.00;;;;;;;;;;12270911;19;20453;-60
2022/08/15 02:09:21;;;;;;;0.00;0.00;;;;;;;;;;12271657;19;20042;-59
2022/08/15 02:13:22;;;;;;;0.00;0.00;;;;;;;;;;12269583;19;20083;-59
2022/08/15 02:17:22;;;;;;;0.00;0.00;;;;;;;;;;12271865;19;20049;-59
2022/08/15 02:21:23;;;;;;;0.00;0.00;;;;;;;;;;12270365;19;20004;-59
2022/08/15 02:25:24;;;;;;;0.00;0.00;;;;;;;;;;12273347;19;20041;-59
2022/08/15 02:29:27;;;;;;;0.00;0.00;;;;;;;;;;12270782;19;20008;-58
2022/08/15 02:33:28;;;;;;;0.00;0.00;;;;;;;;;;12267028;19;19993;-61
2022/08/15 02:37:30;;;;;;;0.00;0.00;;;;;;;;;;12271598;19;20002;-60
2022/08/15 02:41:34;;;;;;;0.00;0.00;;;;;;;;;;12280827;19;20220;-60
2022/08/15 02:45:39;;;;;;;0.00;0.00;;;;;;;;;;12287064;19;20006;-61
2022/08/15 02:49:40;;;;;;;0.00;0.00;;;;;;;;;;12284003;19;20006;-60
2022/08/15 02:53:47;;;;;;;0.00;0.00;;;;;;;;;;12278415;19;20067;-61
2022/08/15 02:57:48;;;;;;;0.00;0.00;;;;;;;;;;12281326;19;19987;-61
2022/08/15 03:01:49;;;;;;;0.00;0.00;;;;;;;;;;12286468;19;20006;-60
2022/08/15 03:05:49;;;;;;;0.00;0.00;;;;;;;;;;12285054;19;20162;-59
2022/08/15 03:09:50;;;;;;;0.00;0.00;;;;;;;;;;12281743;19;20167;-61
2022/08/15 03:13:51;;;;;;;0.00;0.00;;;;;;;;;;12285359;19;20014;-60
2022/08/15 03:17:52;;;;;;;0.00;0.00;;;;;;;;;;12280209;19;20043;-60
2022/08/15 03:21:53;;;;;;;0.00;0.00;;;;;;;;;;12284515;19;20050;-59
2022/08/15 03:25:59;;;;;;;0.00;0.00;;;;;;;;;;12284848;19;20003;-60
2022/08/15 03:30:00;;;;;;;0.00;0.00;;;;;;;;;;12278847;19;19995;-60
2022/08/15 03:34:01;;;;;;;0.00;0.00;;;;;;;;;;12279557;19;20006;-60
2022/08/15 03:38:01;;;;;;;0.00;0.00;;;;;;;;;;12281179;19;20036;-60
2022/08/15 03:42:09;;;;;;;0.00;0.00;;;;;;;;;;12283431;19;20035;-60
2022/08/15 03:46:13;;;;;;;0.00;0.00;;;;;;;;;;12279739;19;20011;-60
2022/08/15 03:50:15;;;;;;;0.00;0.00;;;;;;;;;;12276622;19;20016;-59
2022/08/15 03:54:16;;;;;;;0.00;0.00;;;;;;;;;;12283911;19;20141;-60
2022/08/15 03:58:17;;;;;;;0.00;0.00;;;;;;;;;;12282631;19;20039;-59
2022/08/15 04:02:17;;;;;;;0.00;0.00;;;;;;;;;;12277788;19;20020;-60
2022/08/15 04:06:22;;;;;;;0.00;0.00;;;;;;;;;;12277675;19;20045;-60
2022/08/15 04:10:23;;;;;;;0.00;0.00;;;;;;;;;;12283386;19;20062;-60
2022/08/15 04:14:23;;;;;;;0.00;0.00;;;;;;;;;;12279037;19;20345;-59
2022/08/15 04:18:24;;;;;;;0.00;0.00;;;;;;;;;;12282081;19;20018;-60
2022/08/15 04:22:41;;;;;;;0.00;0.00;;;;;;;;;;12279062;19;20113;-59
2022/08/15 04:26:41;;;;;;;0.00;0.00;;;;;;;;;;12280355;19;20003;-60
2022/08/15 04:30:44;;;;;;;0.00;0.00;;;;;;;;;;12280199;19;19994;-60
2022/08/15 04:34:44;;;;;;;0.00;0.00;;;;;;;;;;12278630;19;20003;-60
2022/08/15 04:38:47;;;;;;;0.00;0.00;;;;;;;;;;12274145;19;20024;-60
2022/08/15 04:42:50;;;;;;;0.00;0.00;;;;;;;;;;12276760;19;20010;-60
2022/08/15 04:46:51;;;;;;;0.00;0.00;;;;;;;;;;12278674;19;20015;-60
2022/08/15 04:50:53;;;;;;;0.00;0.00;;;;;;;;;;12274308;19;20159;-60
2022/08/15 04:54:55;;;;;;;0.00;0.00;;;;;;;;;;12272614;19;20016;-60
2022/08/15 04:58:56;;;;;;;0.00;0.00;;;;;;;;;;12274569;19;20007;-60
2022/08/15 05:03:01;;;;;;;0.00;0.00;;;;;;;;;;12279619;19;20007;-60
2022/08/15 05:07:01;;;;;;;0.00;0.00;;;;;;;;;;12279532;19;20289;-59
2022/08/15 05:11:05;;;;;;;0.00;0.00;;;;;;;;;;12269830;19;20179;-61
2022/08/15 05:15:07;;;;;;;0.00;0.00;;;;;;;;;;12276388;19;20254;-66
2022/08/15 05:19:07;;;;;;;0.00;0.00;;;;;;;;;;12276357;19;20005;-66
2022/08/15 05:23:14;;;;;;;0.00;0.00;;;;;;;;;;12270131;19;20010;-66
2022/08/15 05:27:14;;;;;;;0.00;0.00;;;;;;;;;;12272367;19;20007;-66
2022/08/15 05:31:15;;;;;;;0.00;0.00;;;;;;;;;;12268696;19;19991;-69
2022/08/15 05:35:15;;;;;;;0.00;0.00;;;;;;;;;;12270423;19;20395;-66
2022/08/15 05:39:25;;;;;;;0.00;0.00;;;;;;;;;;12266840;19;20038;-67
2022/08/15 05:43:46;;;;;;;0.00;0.00;;;;;;;;;;12269491;19;19995;-66
2022/08/15 05:48:07;;;;;;;0.00;0.00;;;;;;;;;;12274906;19;20003;-67
2022/08/15 05:52:26;;;;;;;0.00;0.00;;;;;;;;;;12272639;19;20383;-67
2022/08/15 05:56:56;;;;;;;0.00;0.00;;;;;;;;;;12272152;19;20511;-67
2022/08/15 06:01:12;;;;;;;0.00;0.00;;;;;;;;;;12269707;19;20058;-67
2022/08/15 06:05:25;;;;;;;0.00;0.00;;;;;;;;;;12268603;19;20253;-66
2022/08/15 06:09:36;;;;;;;0.00;0.00;;;;;;;;;;12268155;19;20003;-66
2022/08/15 06:13:54;;;;;;;0.00;0.00;;;;;;;;;;12271949;19;20011;-65
2022/08/15 06:17:58;;;;;;;0.00;0.00;;;;;;;;;;12284703;19;20308;-64
2022/08/15 06:22:34;;;;;;;0.00;0.00;;;;;;;;;;12280837;19;20028;-64
2022/08/15 06:26:58;;;;;;;0.00;0.00;;;;;;;;;;12276866;19;20188;-66
2022/08/15 06:31:05;;;;;;;0.00;0.00;;;;;;;;;;12275140;19;20015;-66
2022/08/15 06:35:29;;;;;;;0.00;0.00;;;;;;;;;;12276864;19;20019;-66
2022/08/15 06:39:38;;;;;;;0.00;0.00;;;;;;;;;;12270562;19;19991;-64
2022/08/15 06:43:38;;;;;;;0.00;0.00;;;;;;;;;;12279813;19;20018;-65
2022/08/15 06:47:39;;;;;;;0.00;0.00;;;;;;;;;;12277957;19;19999;-65
2022/08/15 06:51:41;;;;;;;0.00;0.00;;;;;;;;;;12273870;19;20276;-64
2022/08/15 06:55:55;;;;;;;0.00;0.00;;;;;;;;;;12274088;19;20143;-65
2022/08/15 07:00:08;;;;;;;0.00;0.00;;;;;;;;;;12275386;19;19989;-68
2022/08/15 07:04:33;;;;;;;0.00;0.00;;;;;;;;;;12284085;19;20006;-65
2022/08/15 07:09:06;;;;;;;0.00;0.00;;;;;;;;;;12277805;19;19991;-64
2022/08/15 07:13:12;;;;;;;0.00;0.00;;;;;;;;;;12276202;19;20007;-64
2022/08/15 07:17:37;;;;;;;0.00;0.00;;;;;;;;;;12281878;19;20029;-65
2022/08/15 07:21:37;;;;;;;0.00;0.00;;;;;;;;;;12277068;19;19995;-63
2022/08/15 07:25:47;;;;;;;0.00;0.00;;;;;;;;;;12279097;19;20126;-65
2022/08/15 07:29:54;;;;;;;0.00;0.00;;;;;;;;;;12278111;19;20013;-62
2022/08/15 07:34:04;;;;;;;0.00;0.00;;;;;;;;;;12276426;19;20002;-62
2022/08/15 07:38:06;;;;;;;0.00;0.00;;;;;;;;;;12276573;19;20007;-62
2022/08/15 07:42:13;;;;;;;0.00;0.00;;;;;;;;;;12282134;19;20018;-62
2022/08/15 07:46:15;;;;;;;0.00;0.00;;;;;;;;;;12281760;19;19999;-62
2022/08/15 07:50:15;;;;;;;0.00;0.00;;;;;;;;;;12279758;19;20017;-63
2022/08/15 07:54:24;;;;;;;0.00;0.00;;;;;;;;;;12278761;19;20014;-63
2022/08/15 07:58:25;;;;;;;0.00;0.00;;;;;;;;;;12281242;19;20284;-63
2022/08/15 08:02:31;;;;;;;0.00;0.00;;;;;;;;;;12279150;19;20026;-63
2022/08/15 08:06:36;;;;;;;0.00;0.00;;;;;;;;;;12274671;19;20160;-63
2022/08/15 08:10:40;;;;;;;0.00;0.00;;;;;;;;;;12277317;19;20003;-63
2022/08/15 08:14:56;;;;;;;0.00;0.00;;;;;;;;;;12274663;19;20207;-65
2022/08/15 08:19:35;;;;;;;0.00;0.00;;;;;;;;;;12281224;19;20230;-65
2022/08/15 08:23:45;;;;;;;0.00;0.00;;;;;;;;;;12275985;19;20058;-69
2022/08/15 08:27:51;;;;;;;0.00;0.00;;;;;;;;;;12281274;19;20020;-66
2022/08/15 08:32:07;;;;;;;0.00;0.00;;;;;;;;;;12267471;19;20003;-66
2022/08/15 08:36:47;;;;;;;0.00;0.00;;;;;;;;;;12273811;19;20118;-69
2022/08/15 08:41:24;;;;;;;0.00;0.00;;;;;;;;;;12277447;19;20014;-66
2022/08/15 08:46:08;;;;;;;0.00;0.00;;;;;;;;;;12283768;19;19990;-68
2022/08/15 08:50:15;;;;;;;0.00;0.00;;;;;;;;;;12282185;19;20010;-68
2022/08/15 08:54:26;;;;;;;0.00;0.00;;;;;;;;;;12276900;19;20137;-65
2022/08/15 09:06:44;;;;;;;0.00;0.00;;;;;;;;;;12256451;19;20151;-67
2022/08/15 09:10:47;;;;;;;0.00;0.00;;;;;;;;;;12252546;19;20027;-64
2022/08/15 09:14:50;;;;;;;0.00;0.00;;;;;;;;;;12200772;19;20031;-65
2022/08/15 09:19:01;;;;;;;0.00;0.00;;;;;;;;;;12275114;19;20029;-66
2022/08/15 09:23:06;;;;;;;0.00;0.00;;;;;;;;;;12273037;19;20222;-64
2022/08/15 09:27:25;;;;;;;0.00;0.00;;;;;;;;;;12276896;19;20000;-65
2022/08/15 09:31:30;;;;;;;0.00;0.00;;;;;;;;;;12282161;19;20006;-67
2022/08/15 09:35:43;;;;;;;0.00;0.00;;;;;;;;;;12287984;19;20014;-68
2022/08/15 09:40:03;;;;;;;0.00;0.00;;;;;;;;;;12285899;19;20050;-68
2022/08/15 09:44:12;;;;;;;0.00;0.00;;;;;;;;;;12240802;19;20006;-68
2022/08/15 09:48:19;;;;;;;0.00;0.00;;;;;;;;;;12273672;19;20018;-64
2022/08/15 09:52:55;;;;;;;0.00;0.00;;;;;;;;;;12276370;19;20007;-65
2022/08/15 09:57:17;;;;;;;0.00;0.00;;;;;;;;;;12268489;19;19996;-67
2022/08/15 10:01:28;;;;;;;0.00;0.00;;;;;;;;;;12277639;19;20018;-65
2022/08/15 10:05:59;;;;;;;0.00;0.00;;;;;;;;;;12272740;19;19998;-62
2022/08/15 10:09:59;;;;;;;0.00;0.00;;;;;;;;;;12275913;19;20003;-61
2022/08/15 10:14:06;;;;;;;0.00;0.00;;;;;;;;;;12271752;19;20006;-62
2022/08/15 10:18:08;;;;;;;0.00;0.00;;;;;;;;;;12270737;19;19979;-60
2022/08/15 10:22:22;;;;;;;0.00;0.00;;;;;;;;;;12271575;19;20020;-63
2022/08/15 10:26:26;;;;;;;0.00;0.00;;;;;;;;;;12280017;19;20066;-60
2022/08/15 10:30:29;;;;;;;0.00;0.00;;;;;;;;;;12278921;19;19999;-64
2022/08/15 10:34:37;;;;;;;0.00;0.00;;;;;;;;;;12267182;19;20019;-61
2022/08/15 10:38:57;;;;;;;0.00;0.00;;;;;;;;;;12284701;19;20115;-62
2022/08/15 10:43:11;;;;;;;0.00;0.00;;;;;;;;;;12272488;19;19987;-67
2022/08/15 10:47:13;;;;;;;0.00;0.00;;;;;;;;;;12270563;19;20010;-69
2022/08/15 10:51:22;;;;;;;0.00;0.00;;;;;;;;;;12273741;19;20011;-62
2022/08/15 10:55:33;;;;;;;0.00;0.00;;;;;;;;;;12280037;19;20007;-60
2022/08/15 10:59:46;;;;;;;0.00;0.00;;;;;;;;;;12270825;19;19987;-60
2022/08/15 11:03:58;;;;;;;0.00;0.00;;;;;;;;;;12283950;19;20150;-66
2022/08/15 11:07:58;;;;;;;;;;;;;;;;;;12285710;19;20226;-62
2022/08/15 11:12:05;;;;;;;0.00;0.00;;;;;;;;;;12282106;19;19921;-61
2022/08/15 11:16:18;;;;;;;0.00;0.00;;;;;;;;;;12240709;19;20027;-67
2022/08/15 11:20:22;;;;;;;0.00;0.00;;;;;;;;;;12259102;19;20013;-65
2022/08/15 11:24:27;;;;;;;0.00;0.00;;;;;;;;;;12214902;19;20003;-60
2022/08/15 11:28:30;;;;;;;0.00;0.00;;;;;;;;;;12186093;19;20018;-66
2022/08/15 11:32:37;;;;;;;0.00;0.00;;;;;;;;;;12264225;19;20007;-61
2022/08/15 11:36:37;;;;;;;0.00;0.00;;;;;;;;;;12050372;19;21065;-72
2022/08/15 11:40:41;;;;;;;0.00;0.00;;;;;;;;;;12175632;19;20010;-66
2022/08/15 11:44:48;;;;;;;0.00;0.00;;;;;;;;;;12274525;19;19998;-66
2022/08/15 11:48:56;;;;;;;0.00;0.00;;;;;;;;;;12276023;19;19999;-65
2022/08/15 11:53:01;;;;;;;0.00;0.00;;;;;;;;;;12273158;19;19991;-64
2022/08/15 11:57:05;;;;;;;0.00;0.00;;;;;;;;;;12279752;19;20006;-68
2022/08/15 12:01:28;;;;;;;0.00;0.00;;;;;;;;;;12283869;19;19995;-62
2022/08/15 12:05:35;;;;;;;0.00;0.00;;;;;;;;;;12281735;19;20010;-66
2022/08/15 12:09:36;;;;;;;0.00;0.00;;;;;;;;;;12278274;19;19994;-66
2022/08/15 12:13:37;;;;;;;0.00;0.00;;;;;;;;;;12277918;19;20009;-62
2022/08/15 12:17:37;;;;;;;0.00;0.00;;;;;;;;;;12287291;19;20001;-62
2022/08/15 12:21:46;;;;;;;0.00;0.00;;;;;;;;;;12283220;19;20006;-66
2022/08/15 12:25:52;;;;;;;0.00;0.00;;;;;;;;;;12277586;19;20055;-63
2022/08/15 12:29:53;;;;;;;0.00;0.00;;;;;;;;;;12278828;19;19991;-63
2022/08/15 12:34:10;;;;;;;0.00;0.00;;;;;;;;;;12276474;19;20018;-62
2022/08/15 12:38:11;;;;;;;0.00;0.00;;;;;;;;;;12286023;19;20018;-61
2022/08/15 12:42:18;;;;;;;0.00;0.00;;;;;;;;;;12283021;19;20026;-62
2022/08/15 12:46:19;;;;;;;0.00;0.00;;;;;;;;;;12278385;19;20003;-65
2022/08/15 12:50:20;;;;;;;0.00;0.00;;;;;;;;;;12279164;19;20002;-65
2022/08/15 12:54:20;;;;;;;0.00;0.00;;;;;;;;;;12275971;19;19991;-61
2022/08/15 12:58:21;;;;;;;0.00;0.00;;;;;;;;;;12280617;19;19995;-65
2022/08/15 13:02:24;;;;;;;0.00;0.00;;;;;;;;;;12277887;19;20003;-61
2022/08/15 13:06:54;;;;;;;0.00;0.00;;;;;;;;;;12279938;19;19998;-64
2022/08/15 13:10:55;;;;;;;0.00;0.00;;;;;;;;;;12274472;19;20139;-64
2022/08/15 13:14:55;;;;;;;0.00;0.00;;;;;;;;;;12280384;19;20218;-60
2022/08/15 13:18:56;;;;;;;0.00;0.00;;;;;;;;;;12279705;19;20051;-67
2022/08/15 13:27:16;;;;;;;0.00;0.00;;;;;;;;;;12278071;19;20009;-66
2022/08/15 13:31:18;;;;;;;0.00;0.00;;;;;;;;;;12276449;19;20014;-62
2022/08/15 13:35:20;;;;;;;0.00;0.00;;;;;;;;;;12276090;19;20046;-62
2022/08/15 13:39:28;;;;;;;0.00;0.00;;;;;;;;;;12277249;19;20019;-66
2022/08/15 13:43:28;;;;;;;0.00;0.00;;;;;;;;;;12273521;19;20014;-61
2022/08/15 13:47:30;;;;;;;0.00;0.00;;;;;;;;;;12273290;19;20006;-67
2022/08/15 13:51:53;;;;;;;0.00;0.00;;;;;;;;;;12271130;19;20001;-68
2022/08/15 13:55:53;;;;;;;0.00;0.00;;;;;;;;;;12276576;19;20010;-60
2022/08/15 13:59:54;;;;;;;0.00;0.00;;;;;;;;;;12273573;19;20006;-62
2022/08/15 14:04:09;;;;;;;0.00;0.00;;;;;;;;;;12278326;19;20013;-61
2022/08/15 14:08:10;;;;;;;0.00;0.00;;;;;;;;;;12275343;19;19995;-61
2022/08/15 14:12:11;;;;;;;0.00;0.00;;;;;;;;;;12275312;19;20215;-70
2022/08/15 14:16:12;;;;;;;0.00;0.00;;;;;;;;;;12274149;19;20218;-61
2022/08/15 14:20:16;;;;;;;0.00;0.00;;;;;;;;;;12271040;19;20100;-59
2022/08/15 14:24:17;;;;;;;0.00;0.00;;;;;;;;;;12265091;19;20107;-59
2022/08/15 14:28:18;;;;;;;0.00;0.00;;;;;;;;;;12273697;19;20242;-60
2022/08/15 14:32:19;;;;;;;0.00;0.00;;;;;;;;;;12267004;19;20166;-60
2022/08/15 14:36:20;;;;;;;0.00;0.00;;;;;;;;;;12273441;19;20214;-63
2022/08/15 14:40:27;;;;;;;0.00;0.00;;;;;;;;;;12282989;19;20014;-60
2022/08/15 14:44:28;;;;;;;0.00;0.00;;;;;;;;;;12287899;19;20014;-61
2022/08/15 14:48:31;;;;;;;0.00;0.00;;;;;;;;;;12283375;19;20079;-59
2022/08/15 14:52:32;;;;;;;0.00;0.00;;;;;;;;;;12277327;19;20003;-63
2022/08/15 14:56:33;;;;;;;0.00;0.00;;;;;;;;;;12277584;19;20014;-64
2022/08/15 15:00:35;;;;;;;0.00;0.00;;;;;;;;;;12278033;19;20003;-61
2022/08/15 15:04:36;;;;;;;0.00;0.00;;;;;;;;;;12277693;19;20011;-65
2022/08/15 15:08:40;;;;;;;0.00;0.00;;;;;;;;;;12280239;19;20006;-66
2022/08/15 15:12:42;;;;;;;0.00;0.00;;;;;;;;;;12278755;19;20054;-69
2022/08/15 15:16:44;;;;;;;0.00;0.00;;;;;;;;;;12278082;19;20154;-61
2022/08/15 15:20:44;;;;;;;0.00;0.00;;;;;;;;;;12282798;19;19997;-64
2022/08/15 15:24:45;;;;;;;0.00;0.00;;;;;;;;;;12275638;19;19997;-62
2022/08/15 15:28:47;;;;;;;0.00;0.00;;;;;;;;;;12280032;19;20006;-67
2022/08/15 15:32:47;;;;;;;0.00;0.00;;;;;;;;;;12277089;19;20207;-64
2022/08/15 15:36:48;;;;;;;0.00;0.00;;;;;;;;;;12280073;19;20033;-64
2022/08/15 15:40:48;;;;;;;0.00;0.00;;;;;;;;;;12280548;19;20002;-64
2022/08/15 15:44:49;;;;;;;0.00;0.00;;;;;;;;;;12276136;19;20011;-62
2022/08/15 15:48:52;;;;;;;0.00;0.00;;;;;;;;;;12274243;19;20002;-60
2022/08/15 15:53:27;;;;;;;0.00;0.00;;;;;;;;;;12274389;19;19994;-64
2022/08/15 15:57:27;;;;;;;0.00;0.00;;;;;;;;;;12273847;19;20007;-61
2022/08/15 16:01:28;;;;;;;0.00;0.00;;;;;;;;;;12271428;19;20002;-64
2022/08/15 16:05:33;;;;;;;0.00;0.00;;;;;;;;;;12274826;19;20154;-62
2022/08/15 16:09:34;;;;;;;0.00;0.00;;;;;;;;;;12274871;19;20045;-62
2022/08/15 16:13:48;;;;;;;0.00;0.00;;;;;;;;;;12270184;19;19995;-65
2022/08/15 16:17:53;;;;;;;0.00;0.00;;;;;;;;;;12270528;19;20007;-64
2022/08/15 16:22:06;;;;;;;0.00;0.00;;;;;;;;;;12266351;19;19999;-64
2022/08/15 16:26:30;;;;;;;0.00;0.00;;;;;;;;;;12271107;19;20002;-67
2022/08/15 16:30:41;;;;;;;0.00;0.00;;;;;;;;;;12270175;19;20123;-61
2022/08/15 16:34:48;;;;;;;0.00;0.00;;;;;;;;;;12276348;19;20147;-64
2022/08/15 16:39:01;;;;;;;0.00;0.00;;;;;;;;;;12273151;19;20003;-61
2022/08/15 16:43:16;;;;;;;;;;;;;;;;;;12279051;19;20270;-61
2022/08/15 16:47:36;;;;;;;0.00;0.00;;;;;;;;;;12273443;19;19935;-59
2022/08/15 16:51:49;;;;;;;0.00;0.00;;;;;;;;;;12272092;19;20006;-63
2022/08/15 16:55:54;;;;;;;0.00;0.00;;;;;;;;;;12275865;19;20009;-61
2022/08/15 17:00:11;;;;;;;0.00;0.00;;;;;;;;;;12272030;19;20015;-66
2022/08/15 17:04:32;;;;;;;0.00;0.00;;;;;;;;;;12276873;19;19999;-66
2022/08/15 17:08:47;;;;;;;0.00;0.00;;;;;;;;;;12273204;19;20062;-72
2022/08/15 17:13:09;;;;;;;0.00;0.00;;;;;;;;;;12274384;19;20019;-71
2022/08/15 17:17:34;;;;;;;0.00;0.00;;;;;;;;;;12275843;19;20002;-66
2022/08/15 17:21:44;;;;;;;0.00;0.00;;;;;;;;;;12275297;19;20062;-71
2022/08/15 17:26:04;;;;;;;0.00;0.00;;;;;;;;;;12274343;19;19994;-67
2022/08/15 17:30:07;;;;;;;0.00;0.00;;;;;;;;;;12276336;19;20001;-70
2022/08/15 17:34:17;;;;;;;0.00;0.00;;;;;;;;;;12271447;19;20003;-69
2022/08/15 17:38:19;;;;;;;0.00;0.00;;;;;;;;;;12273358;19;20023;-65
2022/08/15 17:42:26;;;;;;;0.00;0.00;;;;;;;;;;12272137;19;20063;-67
2022/08/15 17:46:33;;;;;;;0.00;0.00;;;;;;;;;;12274088;19;20015;-64
2022/08/15 17:50:42;;;;;;;0.00;0.00;;;;;;;;;;12272402;19;20001;-65
2022/08/15 17:54:51;;;;;;;0.00;0.00;;;;;;;;;;12272367;19;20062;-69
2022/08/15 17:58:59;;;;;;;0.00;0.00;;;;;;;;;;12272380;19;19998;-66
2022/08/15 18:03:03;;;;;;;0.00;0.00;;;;;;;;;;12270834;19;20003;-65
2022/08/15 18:07:04;;;;;;;0.00;0.00;;;;;;;;;;12269624;19;20011;-67
2022/08/15 18:11:05;;;;;;;0.00;0.00;;;;;;;;;;12275112;19;20011;-69
2022/08/15 18:15:07;;;;;;;0.00;0.00;;;;;;;;;;12283517;19;20006;-66
2022/08/15 18:19:11;;;;;;;;;;;;;;;;;;12285813;19;20007;-65
2022/08/15 18:23:18;;;;;;;0.00;0.00;;;;;;;;;;12278868;19;19911;-68
2022/08/15 18:27:23;;;;;;;0.00;0.00;;;;;;;;;;12282466;19;20006;-64
2022/08/15 18:31:29;;;;;;;0.00;0.00;;;;;;;;;;12280810;19;20130;-67
2022/08/15 18:35:37;;;;;;;0.00;0.00;;;;;;;;;;12282138;19;20011;-63
2022/08/15 18:44:02;;;;;;;0.00;0.00;;;;;;;;;;12285047;19;20209;-64
2022/08/15 18:48:27;;;;;;;0.00;0.00;;;;;;;;;;12286058;19;20027;-67
2022/08/15 18:52:33;;;;;;;0.00;0.00;;;;;;;;;;12277863;19;20038;-69
2022/08/15 18:56:44;;;;;;;0.00;0.00;;;;;;;;;;12284579;19;19999;-70
2022/08/15 19:01:00;;;;;;;0.00;0.00;;;;;;;;;;12280039;19;19999;-72
2022/08/15 19:05:07;;;;;;;0.00;0.00;;;;;;;;;;12279464;19;20002;-71
2022/08/15 19:09:15;;;;;;;0.00;0.00;;;;;;;;;;12282227;19;20014;-68
2022/08/15 19:13:16;;;;;;;0.00;0.00;;;;;;;;;;12277161;19;19998;-67
2022/08/15 19:17:23;;;;;;;0.00;0.00;;;;;;;;;;12281473;19;20002;-65
2022/08/15 19:21:24;;;;;;;0.00;0.00;;;;;;;;;;12282284;19;20014;-65
2022/08/15 19:25:42;;;;;;;0.00;0.00;;;;;;;;;;12281048;19;19987;-66
2022/08/15 19:29:52;;;;;;;0.00;0.00;;;;;;;;;;12282593;19;19979;-72
2022/08/15 19:34:20;;;;;;;0.00;0.00;;;;;;;;;;12271748;19;20006;-67
2022/08/15 19:38:36;;;;;;;0.00;0.00;;;;;;;;;;12281130;19;19995;-72
2022/08/15 19:42:56;;;;;;;0.00;0.00;;;;;;;;;;12282054;19;19998;-72
2022/08/15 19:46:57;;;;;;;0.00;0.00;;;;;;;;;;12280417;19;19998;-66
2022/08/15 19:51:20;;;;;;;0.00;0.00;;;;;;;;;;12281259;19;19991;-65
2022/08/15 19:55:38;;;;;;;0.00;0.00;;;;;;;;;;12282500;19;19999;-66
2022/08/15 19:59:43;;;;;;;0.00;0.00;;;;;;;;;;12280563;19;20002;-72
2022/08/15 20:04:06;;;;;;;0.00;0.00;;;;;;;;;;12279923;19;20006;-73
2022/08/15 20:08:12;;;;;;;0.00;0.00;;;;;;;;;;12278387;19;20133;-70
2022/08/15 20:12:25;;;;;;;0.00;0.00;;;;;;;;;;12276669;19;20019;-70
2022/08/15 20:16:42;;;;;;;0.00;0.00;;;;;;;;;;12275595;19;19998;-67
2022/08/15 20:21:10;;;;;;;0.00;0.00;;;;;;;;;;12273193;19;19991;-72
2022/08/15 20:25:22;;;;;;;0.00;0.00;;;;;;;;;;12276863;19;20119;-70
2022/08/15 20:29:22;;;;;;;0.00;0.00;;;;;;;;;;12275551;19;19991;-70
2022/08/15 20:33:25;;;;;;;0.00;0.00;;;;;;;;;;12275324;19;20135;-64
2022/08/15 20:37:31;;;;;;;0.00;0.00;;;;;;;;;;12277971;19;20062;-69
2022/08/15 20:41:41;;;;;;;0.00;0.00;;;;;;;;;;12274135;19;20042;-70
2022/08/15 20:45:44;;;;;;;0.00;0.00;;;;;;;;;;12275946;19;20019;-64
2022/08/15 20:49:46;;;;;;;0.00;0.00;;;;;;;;;;12277255;19;20010;-72
2022/08/15 20:53:47;;;;;;;0.00;0.00;;;;;;;;;;12272741;19;20049;-69
2022/08/15 20:57:48;;;;;;;0.00;0.00;;;;;;;;;;12272131;19;20028;-69
2022/08/15 21:01:48;;;;;;;0.00;0.00;;;;;;;;;;12272136;19;20010;-71
2022/08/15 21:05:51;;;;;;;0.00;0.00;;;;;;;;;;12278853;19;20034;-71
2022/08/15 21:10:06;;;;;;;0.00;0.00;;;;;;;;;;12275113;19;19998;-64
2022/08/15 21:14:13;;;;;;;0.00;0.00;;;;;;;;;;12271579;19;20002;-64
2022/08/15 21:18:38;;;;;;;0.00;0.00;;;;;;;;;;12275367;19;20022;-70
2022/08/15 21:22:49;;;;;;;0.00;0.00;;;;;;;;;;12269314;19;20025;-71
2022/08/15 21:26:53;;;;;;;0.00;0.00;;;;;;;;;;12269914;19;19991;-64
2022/08/15 21:30:57;;;;;;;0.00;0.00;;;;;;;;;;12273351;19;20014;-65
2022/08/15 21:35:16;;;;;;;0.00;0.00;;;;;;;;;;12275615;19;20059;-70
2022/08/15 21:39:32;;;;;;;0.00;0.00;;;;;;;;;;12275190;19;20038;-71
2022/08/15 21:44:03;;;;;;;0.00;0.00;;;;;;;;;;12274202;19;20227;-66
2022/08/15 21:48:20;;;;;;;0.00;0.00;;;;;;;;;;12272113;19;19998;-66
2022/08/15 21:52:23;;;;;;;0.00;0.00;;;;;;;;;;12269778;19;20114;-66
2022/08/15 21:56:24;;;;;;;0.00;0.00;;;;;;;;;;12268411;19;20007;-64
2022/08/15 22:00:35;;;;;;;0.00;0.00;;;;;;;;;;12268433;19;20010;-67
2022/08/15 22:04:42;;;;;;;0.00;0.00;;;;;;;;;;12267570;19;19991;-71
2022/08/15 22:08:47;;;;;;;0.00;0.00;;;;;;;;;;12268442;19;20000;-66
2022/08/15 22:12:51;;;;;;;0.00;0.00;;;;;;;;;;12272116;19;20015;-69
2022/08/15 22:16:52;;;;;;;0.00;0.00;;;;;;;;;;12268220;19;20004;-65
2022/08/15 22:20:54;;;;;;;0.00;0.00;;;;;;;;;;12272990;19;20002;-70
2022/08/15 22:24:55;;;;;;;0.00;0.00;;;;;;;;;;12264582;19;20006;-64
2022/08/15 22:29:04;;;;;;;0.00;0.00;;;;;;;;;;12270740;19;20002;-65
2022/08/15 22:33:06;;;;;;;0.00;0.00;;;;;;;;;;12264472;19;20006;-65
2022/08/15 22:37:07;;;;;;;0.00;0.00;;;;;;;;;;12268082;19;20018;-71
2022/08/15 22:41:11;;;;;;;0.00;0.00;;;;;;;;;;12266208;19;19991;-66
2022/08/15 22:45:17;;;;;;;0.00;0.00;;;;;;;;;;12267105;19;20134;-65
2022/08/15 22:49:23;;;;;;;0.00;0.00;;;;;;;;;;12266382;19;20040;-69
2022/08/15 22:53:27;;;;;;;0.00;0.00;;;;;;;;;;12263405;19;20001;-65
2022/08/15 22:57:33;;;;;;;0.00;0.00;;;;;;;;;;12278636;19;20215;-71
2022/08/15 23:01:39;;;;;;;0.00;0.00;;;;;;;;;;12277208;19;20056;-67
2022/08/15 23:05:45;;;;;;;0.00;0.00;;;;;;;;;;12283016;19;20417;-66
2022/08/15 23:09:48;;;;;;;0.00;0.00;;;;;;;;;;12277448;19;20225;-66
2022/08/15 23:14:00;;;;;;;0.00;0.00;;;;;;;;;;12276433;19;20009;-66
2022/08/15 23:18:05;;;;;;;0.00;0.00;;;;;;;;;;12277002;19;19995;-66
2022/08/15 23:22:09;;;;;;;0.00;0.00;;;;;;;;;;12277347;19;20040;-66
2022/08/15 23:26:13;;;;;;;0.00;0.00;;;;;;;;;;12276347;19;19995;-66
2022/08/15 23:30:22;;;;;;;0.00;0.00;;;;;;;;;;12276674;19;20027;-66
2022/08/15 23:34:23;;;;;;;0.00;0.00;;;;;;;;;;12274161;19;19999;-66
2022/08/15 23:38:24;;;;;;;0.00;0.00;;;;;;;;;;12279761;19;19994;-66
2022/08/15 23:42:38;;;;;;;0.00;0.00;;;;;;;;;;12276356;19;19994;-66
2022/08/15 23:46:38;;;;;;;0.00;0.00;;;;;;;;;;12276940;19;19995;-66
2022/08/15 23:50:39;;;;;;;0.00;0.00;;;;;;;;;;12274787;19;20002;-67
2022/08/15 23:54:40;;;;;;;0.00;0.00;;;;;;;;;;12275982;19;20009;-67
2022/08/15 23:58:41;;;;;;;0.00;0.00;;;;;;;;;;12274367;19;20014;-66
